sensor_id;sensor_type;location;lat;lon;timestamp;P1;durP1;ratioP1;P2;durP2;ratioP2
41077;SDS011;26823;42.662;23.352;2023-12-20T00:01:28;49.72;;;29.48;;
41077;SDS011;26823;42.662;23.352;2023-12-20T00:03:53;56.65;;;30.55;;
41077;SDS011;26823;42.662;23.352;2023-12-20T00:06:18;52.55;;;31.08;;
41077;SDS011;26823;42.662;23.352;2023-12-20T00:08:44;51.25;;;30.67;;
41077;SDS011;26823;42.662;23.352;2023-12-20T00:11:09;56.85;;;29.40;;
41077;SDS011;26823;42.662;23.352;2023-12-20T00:13:35;56.58;;;31.23;;
41077;SDS011;26823;42.662;23.352;2023-12-20T00:16:00;54.55;;;30.92;;
41077;SDS011;26823;42.662;23.352;2023-12-20T00:18:26;57.45;;;30.08;;
41077;SDS011;26823;42.662;23.352;2023-12-20T00:20:51;55.45;;;31.02;;
41077;SDS011;26823;42.662;23.352;2023-12-20T00:23:17;55.50;;;29.98;;
41077;SDS011;26823;42.662;23.352;2023-12-20T00:25:42;51.13;;;29.75;;
41077;SDS011;26823;42.662;23.352;2023-12-20T00:28:07;52.25;;;29.77;;
41077;SDS011;26823;42.662;23.352;2023-12-20T00:30:33;51.70;;;28.95;;
41077;SDS011;26823;42.662;23.352;2023-12-20T00:32:58;50.47;;;29.67;;
41077;SDS011;26823;42.662;23.352;2023-12-20T00:35:24;56.83;;;31.00;;
41077;SDS011;26823;42.662;23.352;2023-12-20T00:37:49;50.90;;;30.70;;
41077;SDS011;26823;42.662;23.352;2023-12-20T00:40:15;60.70;;;32.55;;
41077;SDS011;26823;42.662;23.352;2023-12-20T00:42:40;52.05;;;30.20;;
41077;SDS011;26823;42.662;23.352;2023-12-20T00:45:06;53.72;;;29.73;;
41077;SDS011;26823;42.662;23.352;2023-12-20T00:47:31;50.70;;;30.23;;
41077;SDS011;26823;42.662;23.352;2023-12-20T00:49:57;48.67;;;29.30;;
41077;SDS011;26823;42.662;23.352;2023-12-20T00:52:23;48.25;;;27.67;;
41077;SDS011;26823;42.662;23.352;2023-12-20T00:54:48;45.58;;;27.85;;
41077;SDS011;26823;42.662;23.352;2023-12-20T00:57:14;43.50;;;24.33;;
41077;SDS011;26823;42.662;23.352;2023-12-20T00:59:40;46.03;;;25.52;;
41077;SDS011;26823;42.662;23.352;2023-12-20T01:02:05;40.55;;;24.02;;
41077;SDS011;26823;42.662;23.352;2023-12-20T01:04:31;44.30;;;25.33;;
41077;SDS011;26823;42.662;23.352;2023-12-20T01:06:56;41.03;;;24.42;;
41077;SDS011;26823;42.662;23.352;2023-12-20T01:09:22;41.33;;;24.33;;
41077;SDS011;26823;42.662;23.352;2023-12-20T01:11:54;40.97;;;25.23;;
41077;SDS011;26823;42.662;23.352;2023-12-20T01:14:19;44.40;;;24.33;;
41077;SDS011;26823;42.662;23.352;2023-12-20T01:16:45;49.83;;;26.80;;
41077;SDS011;26823;42.662;23.352;2023-12-20T01:19:10;47.67;;;24.50;;
41077;SDS011;26823;42.662;23.352;2023-12-20T01:21:36;44.88;;;24.75;;
41077;SDS011;26823;42.662;23.352;2023-12-20T01:24:01;46.22;;;25.48;;
41077;SDS011;26823;42.662;23.352;2023-12-20T01:26:27;50.53;;;27.52;;
41077;SDS011;26823;42.662;23.352;2023-12-20T01:28:52;48.30;;;28.92;;
41077;SDS011;26823;42.662;23.352;2023-12-20T01:31:18;52.15;;;30.65;;
41077;SDS011;26823;42.662;23.352;2023-12-20T01:33:44;52.92;;;31.83;;
41077;SDS011;26823;42.662;23.352;2023-12-20T01:36:09;53.60;;;30.45;;
41077;SDS011;26823;42.662;23.352;2023-12-20T01:38:34;54.97;;;30.77;;
41077;SDS011;26823;42.662;23.352;2023-12-20T01:41:00;54.92;;;31.00;;
41077;SDS011;26823;42.662;23.352;2023-12-20T01:43:25;54.53;;;31.25;;
41077;SDS011;26823;42.662;23.352;2023-12-20T01:45:51;50.97;;;29.13;;
41077;SDS011;26823;42.662;23.352;2023-12-20T01:48:17;50.17;;;29.40;;
41077;SDS011;26823;42.662;23.352;2023-12-20T01:50:44;47.20;;;28.48;;
41077;SDS011;26823;42.662;23.352;2023-12-20T01:53:10;47.83;;;28.23;;
41077;SDS011;26823;42.662;23.352;2023-12-20T01:55:38;46.53;;;28.20;;
41077;SDS011;26823;42.662;23.352;2023-12-20T01:58:05;50.42;;;29.48;;
41077;SDS011;26823;42.662;23.352;2023-12-20T02:00:32;50.83;;;31.60;;
41077;SDS011;26823;42.662;23.352;2023-12-20T02:03:01;51.92;;;31.13;;
41077;SDS011;26823;42.662;23.352;2023-12-20T02:05:27;52.95;;;31.05;;
41077;SDS011;26823;42.662;23.352;2023-12-20T02:07:54;56.97;;;30.35;;
41077;SDS011;26823;42.662;23.352;2023-12-20T02:10:19;59.17;;;31.10;;
41077;SDS011;26823;42.662;23.352;2023-12-20T02:12:45;57.55;;;31.30;;
41077;SDS011;26823;42.662;23.352;2023-12-20T02:15:11;57.28;;;31.95;;
41077;SDS011;26823;42.662;23.352;2023-12-20T02:17:36;54.13;;;32.25;;
41077;SDS011;26823;42.662;23.352;2023-12-20T02:20:03;56.33;;;32.25;;
41077;SDS011;26823;42.662;23.352;2023-12-20T02:22:30;61.55;;;32.10;;
41077;SDS011;26823;42.662;23.352;2023-12-20T02:24:56;59.78;;;33.55;;
41077;SDS011;26823;42.662;23.352;2023-12-20T02:27:21;59.75;;;34.40;;
41077;SDS011;26823;42.662;23.352;2023-12-20T02:29:49;55.80;;;32.88;;
41077;SDS011;26823;42.662;23.352;2023-12-20T02:32:16;54.92;;;33.75;;
41077;SDS011;26823;42.662;23.352;2023-12-20T02:34:42;65.55;;;34.13;;
41077;SDS011;26823;42.662;23.352;2023-12-20T02:37:08;58.38;;;33.15;;
41077;SDS011;26823;42.662;23.352;2023-12-20T02:39:33;56.38;;;33.28;;
41077;SDS011;26823;42.662;23.352;2023-12-20T02:41:59;66.32;;;37.08;;
41077;SDS011;26823;42.662;23.352;2023-12-20T02:44:24;65.78;;;39.47;;
41077;SDS011;26823;42.662;23.352;2023-12-20T02:46:50;88.97;;;47.45;;
41077;SDS011;26823;42.662;23.352;2023-12-20T02:49:15;114.70;;;66.45;;
41077;SDS011;26823;42.662;23.352;2023-12-20T02:51:41;121.32;;;69.68;;
41077;SDS011;26823;42.662;23.352;2023-12-20T02:54:06;136.20;;;77.85;;
41077;SDS011;26823;42.662;23.352;2023-12-20T02:56:32;138.10;;;78.85;;
41077;SDS011;26823;42.662;23.352;2023-12-20T02:58:58;129.13;;;73.47;;
41077;SDS011;26823;42.662;23.352;2023-12-20T03:01:24;152.02;;;84.90;;
41077;SDS011;26823;42.662;23.352;2023-12-20T03:03:49;150.32;;;86.07;;
41077;SDS011;26823;42.662;23.352;2023-12-20T03:06:18;148.20;;;85.78;;
41077;SDS011;26823;42.662;23.352;2023-12-20T03:08:44;153.80;;;87.13;;
41077;SDS011;26823;42.662;23.352;2023-12-20T03:11:10;159.40;;;88.30;;
41077;SDS011;26823;42.662;23.352;2023-12-20T03:13:35;151.50;;;86.57;;
41077;SDS011;26823;42.662;23.352;2023-12-20T03:16:01;148.60;;;85.18;;
41077;SDS011;26823;42.662;23.352;2023-12-20T03:18:26;142.02;;;83.07;;
41077;SDS011;26823;42.662;23.352;2023-12-20T03:20:53;151.68;;;83.32;;
41077;SDS011;26823;42.662;23.352;2023-12-20T03:23:19;147.95;;;84.88;;
41077;SDS011;26823;42.662;23.352;2023-12-20T03:25:44;142.23;;;81.80;;
41077;SDS011;26823;42.662;23.352;2023-12-20T03:28:09;131.60;;;77.78;;
41077;SDS011;26823;42.662;23.352;2023-12-20T03:30:35;123.15;;;72.93;;
41077;SDS011;26823;42.662;23.352;2023-12-20T03:33:00;120.90;;;68.78;;
41077;SDS011;26823;42.662;23.352;2023-12-20T03:35:26;123.32;;;70.65;;
41077;SDS011;26823;42.662;23.352;2023-12-20T03:37:51;126.93;;;71.15;;
41077;SDS011;26823;42.662;23.352;2023-12-20T03:40:17;118.32;;;67.13;;
41077;SDS011;26823;42.662;23.352;2023-12-20T03:42:42;131.88;;;74.97;;
41077;SDS011;26823;42.662;23.352;2023-12-20T03:45:08;116.68;;;67.50;;
41077;SDS011;26823;42.662;23.352;2023-12-20T03:47:34;115.05;;;66.38;;
41077;SDS011;26823;42.662;23.352;2023-12-20T03:49:59;125.32;;;73.20;;
41077;SDS011;26823;42.662;23.352;2023-12-20T03:52:24;125.65;;;71.50;;
41077;SDS011;26823;42.662;23.352;2023-12-20T03:54:50;128.38;;;73.75;;
41077;SDS011;26823;42.662;23.352;2023-12-20T03:57:15;123.38;;;71.45;;
41077;SDS011;26823;42.662;23.352;2023-12-20T03:59:41;123.18;;;72.78;;
41077;SDS011;26823;42.662;23.352;2023-12-20T04:02:06;127.32;;;70.05;;
41077;SDS011;26823;42.662;23.352;2023-12-20T04:04:31;117.72;;;68.82;;
41077;SDS011;26823;42.662;23.352;2023-12-20T04:06:57;115.93;;;68.90;;
41077;SDS011;26823;42.662;23.352;2023-12-20T04:09:22;115.18;;;69.15;;
41077;SDS011;26823;42.662;23.352;2023-12-20T04:11:48;123.03;;;70.40;;
41077;SDS011;26823;42.662;23.352;2023-12-20T04:14:13;121.55;;;69.03;;
41077;SDS011;26823;42.662;23.352;2023-12-20T04:16:39;118.47;;;70.25;;
41077;SDS011;26823;42.662;23.352;2023-12-20T04:19:04;121.05;;;68.05;;
41077;SDS011;26823;42.662;23.352;2023-12-20T04:21:30;111.55;;;66.75;;
41077;SDS011;26823;42.662;23.352;2023-12-20T04:23:55;116.10;;;67.75;;
41077;SDS011;26823;42.662;23.352;2023-12-20T04:26:21;112.95;;;65.60;;
41077;SDS011;26823;42.662;23.352;2023-12-20T04:28:46;124.60;;;68.20;;
41077;SDS011;26823;42.662;23.352;2023-12-20T04:31:12;121.53;;;67.97;;
41077;SDS011;26823;42.662;23.352;2023-12-20T04:33:37;119.50;;;69.05;;
41077;SDS011;26823;42.662;23.352;2023-12-20T04:36:03;110.88;;;64.55;;
41077;SDS011;26823;42.662;23.352;2023-12-20T04:38:29;113.43;;;65.80;;
41077;SDS011;26823;42.662;23.352;2023-12-20T04:40:55;118.93;;;67.25;;
41077;SDS011;26823;42.662;23.352;2023-12-20T04:43:21;119.97;;;64.53;;
41077;SDS011;26823;42.662;23.352;2023-12-20T04:45:46;107.75;;;64.32;;
41077;SDS011;26823;42.662;23.352;2023-12-20T04:48:12;107.97;;;61.30;;
41077;SDS011;26823;42.662;23.352;2023-12-20T04:50:37;115.38;;;66.28;;
41077;SDS011;26823;42.662;23.352;2023-12-20T04:53:03;112.70;;;64.25;;
41077;SDS011;26823;42.662;23.352;2023-12-20T04:55:28;107.85;;;62.80;;
41077;SDS011;26823;42.662;23.352;2023-12-20T04:57:54;104.85;;;60.50;;
41077;SDS011;26823;42.662;23.352;2023-12-20T05:00:20;95.70;;;55.85;;
41077;SDS011;26823;42.662;23.352;2023-12-20T05:02:45;96.78;;;55.35;;
41077;SDS011;26823;42.662;23.352;2023-12-20T05:05:10;102.80;;;57.45;;
41077;SDS011;26823;42.662;23.352;2023-12-20T05:07:36;103.70;;;56.33;;
41077;SDS011;26823;42.662;23.352;2023-12-20T05:10:02;103.50;;;54.08;;
41077;SDS011;26823;42.662;23.352;2023-12-20T05:12:29;100.22;;;51.78;;
41077;SDS011;26823;42.662;23.352;2023-12-20T05:14:55;100.47;;;52.22;;
41077;SDS011;26823;42.662;23.352;2023-12-20T05:17:20;109.30;;;51.53;;
41077;SDS011;26823;42.662;23.352;2023-12-20T05:19:46;105.30;;;52.30;;
41077;SDS011;26823;42.662;23.352;2023-12-20T05:22:11;109.38;;;49.67;;
41077;SDS011;26823;42.662;23.352;2023-12-20T05:24:37;110.57;;;52.22;;
41077;SDS011;26823;42.662;23.352;2023-12-20T05:27:02;102.70;;;49.60;;
41077;SDS011;26823;42.662;23.352;2023-12-20T05:29:28;96.75;;;51.45;;
41077;SDS011;26823;42.662;23.352;2023-12-20T05:31:53;108.07;;;50.85;;
41077;SDS011;26823;42.662;23.352;2023-12-20T05:34:19;102.20;;;51.35;;
41077;SDS011;26823;42.662;23.352;2023-12-20T05:36:45;103.47;;;52.17;;
41077;SDS011;26823;42.662;23.352;2023-12-20T05:39:10;103.47;;;54.05;;
41077;SDS011;26823;42.662;23.352;2023-12-20T05:41:36;106.07;;;54.33;;
41077;SDS011;26823;42.662;23.352;2023-12-20T05:44:01;100.07;;;50.88;;
41077;SDS011;26823;42.662;23.352;2023-12-20T05:46:27;91.60;;;46.90;;
41077;SDS011;26823;42.662;23.352;2023-12-20T05:48:52;103.88;;;48.45;;
41077;SDS011;26823;42.662;23.352;2023-12-20T05:51:18;85.03;;;47.25;;
41077;SDS011;26823;42.662;23.352;2023-12-20T05:53:43;108.90;;;47.05;;
41077;SDS011;26823;42.662;23.352;2023-12-20T05:56:09;92.03;;;43.90;;
41077;SDS011;26823;42.662;23.352;2023-12-20T05:58:35;83.45;;;42.53;;
41077;SDS011;26823;42.662;23.352;2023-12-20T06:01:03;88.78;;;43.78;;
41077;SDS011;26823;42.662;23.352;2023-12-20T06:03:29;74.38;;;42.38;;
41077;SDS011;26823;42.662;23.352;2023-12-20T06:05:54;81.20;;;42.55;;
41077;SDS011;26823;42.662;23.352;2023-12-20T06:08:19;76.50;;;40.92;;
41077;SDS011;26823;42.662;23.352;2023-12-20T06:10:45;82.80;;;43.83;;
41077;SDS011;26823;42.662;23.352;2023-12-20T06:13:10;105.18;;;42.50;;
41077;SDS011;26823;42.662;23.352;2023-12-20T06:15:38;80.20;;;39.63;;
41077;SDS011;26823;42.662;23.352;2023-12-20T06:18:03;76.03;;;39.55;;
41077;SDS011;26823;42.662;23.352;2023-12-20T06:20:28;76.65;;;39.90;;
41077;SDS011;26823;42.662;23.352;2023-12-20T06:22:54;73.70;;;38.70;;
41077;SDS011;26823;42.662;23.352;2023-12-20T06:25:19;77.60;;;38.90;;
41077;SDS011;26823;42.662;23.352;2023-12-20T06:27:45;78.88;;;40.28;;
41077;SDS011;26823;42.662;23.352;2023-12-20T06:30:10;77.72;;;39.63;;
41077;SDS011;26823;42.662;23.352;2023-12-20T06:32:36;86.07;;;40.80;;
41077;SDS011;26823;42.662;23.352;2023-12-20T06:35:03;75.70;;;39.80;;
41077;SDS011;26823;42.662;23.352;2023-12-20T06:37:30;80.97;;;42.45;;
41077;SDS011;26823;42.662;23.352;2023-12-20T06:39:55;88.68;;;43.75;;
41077;SDS011;26823;42.662;23.352;2023-12-20T06:42:22;85.90;;;42.25;;
41077;SDS011;26823;42.662;23.352;2023-12-20T06:44:47;84.32;;;41.72;;
41077;SDS011;26823;42.662;23.352;2023-12-20T06:47:13;84.28;;;41.00;;
41077;SDS011;26823;42.662;23.352;2023-12-20T06:49:39;80.70;;;41.05;;
41077;SDS011;26823;42.662;23.352;2023-12-20T06:52:05;68.32;;;36.80;;
41077;SDS011;26823;42.662;23.352;2023-12-20T06:54:30;73.40;;;37.53;;
41077;SDS011;26823;42.662;23.352;2023-12-20T06:56:56;70.03;;;35.70;;
41077;SDS011;26823;42.662;23.352;2023-12-20T06:59:21;65.70;;;33.67;;
41077;SDS011;26823;42.662;23.352;2023-12-20T07:01:50;68.53;;;34.90;;
41077;SDS011;26823;42.662;23.352;2023-12-20T07:04:15;68.20;;;35.35;;
41077;SDS011;26823;42.662;23.352;2023-12-20T07:06:45;70.63;;;37.92;;
41077;SDS011;26823;42.662;23.352;2023-12-20T07:09:10;67.22;;;37.17;;
41077;SDS011;26823;42.662;23.352;2023-12-20T07:11:36;62.97;;;36.85;;
41077;SDS011;26823;42.662;23.352;2023-12-20T07:14:01;67.63;;;35.15;;
41077;SDS011;26823;42.662;23.352;2023-12-20T07:16:26;68.10;;;37.00;;
41077;SDS011;26823;42.662;23.352;2023-12-20T07:18:52;71.82;;;37.67;;
41077;SDS011;26823;42.662;23.352;2023-12-20T07:21:17;65.80;;;37.20;;
41077;SDS011;26823;42.662;23.352;2023-12-20T07:23:43;68.05;;;38.00;;
41077;SDS011;26823;42.662;23.352;2023-12-20T07:26:08;77.20;;;43.33;;
41077;SDS011;26823;42.662;23.352;2023-12-20T07:28:34;77.28;;;43.08;;
41077;SDS011;26823;42.662;23.352;2023-12-20T07:30:59;81.85;;;45.20;;
41077;SDS011;26823;42.662;23.352;2023-12-20T07:33:25;75.47;;;43.50;;
41077;SDS011;26823;42.662;23.352;2023-12-20T07:35:50;79.22;;;46.65;;
41077;SDS011;26823;42.662;23.352;2023-12-20T07:38:16;80.50;;;47.08;;
41077;SDS011;26823;42.662;23.352;2023-12-20T07:40:42;78.88;;;44.65;;
41077;SDS011;26823;42.662;23.352;2023-12-20T07:43:07;77.47;;;45.38;;
41077;SDS011;26823;42.662;23.352;2023-12-20T07:45:33;73.25;;;40.22;;
41077;SDS011;26823;42.662;23.352;2023-12-20T07:47:59;69.68;;;39.40;;
41077;SDS011;26823;42.662;23.352;2023-12-20T07:50:24;69.22;;;38.25;;
41077;SDS011;26823;42.662;23.352;2023-12-20T07:52:50;66.95;;;38.55;;
41077;SDS011;26823;42.662;23.352;2023-12-20T07:55:15;67.90;;;38.40;;
41077;SDS011;26823;42.662;23.352;2023-12-20T07:57:40;65.45;;;38.80;;
41077;SDS011;26823;42.662;23.352;2023-12-20T08:00:06;67.65;;;37.28;;
41077;SDS011;26823;42.662;23.352;2023-12-20T08:02:32;69.90;;;37.00;;
41077;SDS011;26823;42.662;23.352;2023-12-20T08:04:57;69.30;;;35.90;;
41077;SDS011;26823;42.662;23.352;2023-12-20T08:07:22;62.78;;;35.45;;
41077;SDS011;26823;42.662;23.352;2023-12-20T08:09:49;61.70;;;38.15;;
41077;SDS011;26823;42.662;23.352;2023-12-20T08:12:14;65.70;;;35.70;;
41077;SDS011;26823;42.662;23.352;2023-12-20T08:14:42;65.90;;;34.88;;
41077;SDS011;26823;42.662;23.352;2023-12-20T08:17:07;63.15;;;35.72;;
41077;SDS011;26823;42.662;23.352;2023-12-20T08:19:32;63.17;;;35.70;;
41077;SDS011;26823;42.662;23.352;2023-12-20T08:21:58;58.25;;;34.40;;
41077;SDS011;26823;42.662;23.352;2023-12-20T08:24:23;61.70;;;35.15;;
41077;SDS011;26823;42.662;23.352;2023-12-20T08:26:48;56.70;;;33.80;;
41077;SDS011;26823;42.662;23.352;2023-12-20T08:29:14;61.45;;;34.40;;
41077;SDS011;26823;42.662;23.352;2023-12-20T08:31:39;67.88;;;35.60;;
41077;SDS011;26823;42.662;23.352;2023-12-20T08:34:05;70.07;;;35.83;;
41077;SDS011;26823;42.662;23.352;2023-12-20T08:36:30;63.47;;;34.53;;
41077;SDS011;26823;42.662;23.352;2023-12-20T08:38:56;59.42;;;34.20;;
41077;SDS011;26823;42.662;23.352;2023-12-20T08:41:21;69.93;;;36.25;;
41077;SDS011;26823;42.662;23.352;2023-12-20T08:43:46;69.60;;;35.88;;
41077;SDS011;26823;42.662;23.352;2023-12-20T08:46:13;69.78;;;36.72;;
41077;SDS011;26823;42.662;23.352;2023-12-20T08:48:39;72.47;;;37.28;;
41077;SDS011;26823;42.662;23.352;2023-12-20T08:51:04;71.20;;;35.72;;
41077;SDS011;26823;42.662;23.352;2023-12-20T08:53:32;75.80;;;37.75;;
41077;SDS011;26823;42.662;23.352;2023-12-20T08:55:58;81.82;;;41.38;;
41077;SDS011;26823;42.662;23.352;2023-12-20T08:58:26;76.85;;;38.20;;
41077;SDS011;26823;42.662;23.352;2023-12-20T09:00:52;85.32;;;39.47;;
41077;SDS011;26823;42.662;23.352;2023-12-20T09:03:17;78.93;;;39.17;;
41077;SDS011;26823;42.662;23.352;2023-12-20T09:05:42;88.20;;;36.70;;
41077;SDS011;26823;42.662;23.352;2023-12-20T09:08:08;78.63;;;39.33;;
41077;SDS011;26823;42.662;23.352;2023-12-20T09:10:35;85.85;;;38.38;;
41077;SDS011;26823;42.662;23.352;2023-12-20T09:13:01;82.95;;;38.60;;
41077;SDS011;26823;42.662;23.352;2023-12-20T09:15:27;85.57;;;40.63;;
41077;SDS011;26823;42.662;23.352;2023-12-20T09:17:53;85.18;;;39.90;;
41077;SDS011;26823;42.662;23.352;2023-12-20T09:20:19;87.10;;;40.63;;
41077;SDS011;26823;42.662;23.352;2023-12-20T09:22:45;84.30;;;42.90;;
41077;SDS011;26823;42.662;23.352;2023-12-20T09:25:10;88.68;;;42.78;;
41077;SDS011;26823;42.662;23.352;2023-12-20T09:27:37;91.82;;;41.58;;
41077;SDS011;26823;42.662;23.352;2023-12-20T09:30:03;86.22;;;41.92;;
41077;SDS011;26823;42.662;23.352;2023-12-20T09:32:30;91.85;;;41.10;;
41077;SDS011;26823;42.662;23.352;2023-12-20T09:34:56;94.43;;;42.65;;
41077;SDS011;26823;42.662;23.352;2023-12-20T09:37:21;100.90;;;43.58;;
41077;SDS011;26823;42.662;23.352;2023-12-20T09:39:47;91.90;;;44.00;;
41077;SDS011;26823;42.662;23.352;2023-12-20T09:42:12;98.20;;;42.95;;
41077;SDS011;26823;42.662;23.352;2023-12-20T09:44:46;90.25;;;44.20;;
41077;SDS011;26823;42.662;23.352;2023-12-20T09:47:12;100.38;;;43.47;;
41077;SDS011;26823;42.662;23.352;2023-12-20T09:49:40;92.05;;;43.22;;
41077;SDS011;26823;42.662;23.352;2023-12-20T09:52:08;103.18;;;45.38;;
41077;SDS011;26823;42.662;23.352;2023-12-20T09:54:36;93.75;;;43.10;;
41077;SDS011;26823;42.662;23.352;2023-12-20T09:57:01;98.95;;;42.97;;
41077;SDS011;26823;42.662;23.352;2023-12-20T09:59:27;95.72;;;43.78;;
41077;SDS011;26823;42.662;23.352;2023-12-20T10:01:52;98.57;;;42.53;;
41077;SDS011;26823;42.662;23.352;2023-12-20T10:04:21;97.95;;;42.15;;
41077;SDS011;26823;42.662;23.352;2023-12-20T10:06:46;89.13;;;42.70;;
41077;SDS011;26823;42.662;23.352;2023-12-20T10:09:13;94.65;;;42.85;;
41077;SDS011;26823;42.662;23.352;2023-12-20T10:11:38;91.93;;;41.35;;
41077;SDS011;26823;42.662;23.352;2023-12-20T10:14:07;86.57;;;42.75;;
41077;SDS011;26823;42.662;23.352;2023-12-20T10:16:33;88.10;;;43.70;;
41077;SDS011;26823;42.662;23.352;2023-12-20T10:18:59;84.47;;;43.67;;
41077;SDS011;26823;42.662;23.352;2023-12-20T10:21:26;88.32;;;45.08;;
41077;SDS011;26823;42.662;23.352;2023-12-20T10:23:52;89.10;;;44.47;;
41077;SDS011;26823;42.662;23.352;2023-12-20T10:26:19;83.03;;;43.05;;
41077;SDS011;26823;42.662;23.352;2023-12-20T10:28:46;75.10;;;42.45;;
41077;SDS011;26823;42.662;23.352;2023-12-20T10:31:31;78.88;;;43.03;;
41077;SDS011;26823;42.662;23.352;2023-12-20T10:33:58;70.60;;;42.45;;
41077;SDS011;26823;42.662;23.352;2023-12-20T10:36:25;77.25;;;44.38;;
41077;SDS011;26823;42.662;23.352;2023-12-20T10:38:52;79.60;;;45.78;;
41077;SDS011;26823;42.662;23.352;2023-12-20T10:41:19;81.38;;;44.67;;
41077;SDS011;26823;42.662;23.352;2023-12-20T10:43:53;73.47;;;44.53;;
41077;SDS011;26823;42.662;23.352;2023-12-20T10:46:21;71.88;;;43.80;;
41077;SDS011;26823;42.662;23.352;2023-12-20T10:48:46;75.85;;;45.67;;
41077;SDS011;26823;42.662;23.352;2023-12-20T10:51:14;75.72;;;45.42;;
41077;SDS011;26823;42.662;23.352;2023-12-20T10:53:43;77.53;;;47.15;;
41077;SDS011;26823;42.662;23.352;2023-12-20T10:56:12;81.93;;;46.90;;
41077;SDS011;26823;42.662;23.352;2023-12-20T10:58:41;83.40;;;45.25;;
41077;SDS011;26823;42.662;23.352;2023-12-20T11:01:07;79.93;;;47.35;;
41077;SDS011;26823;42.662;23.352;2023-12-20T11:03:34;77.82;;;46.40;;
41077;SDS011;26823;42.662;23.352;2023-12-20T11:14:48;82.85;;;46.28;;
41077;SDS011;26823;42.662;23.352;2023-12-20T11:17:20;85.93;;;46.03;;
41077;SDS011;26823;42.662;23.352;2023-12-20T11:22:18;82.30;;;44.20;;
41077;SDS011;26823;42.662;23.352;2023-12-20T11:24:48;84.80;;;45.75;;
41077;SDS011;26823;42.662;23.352;2023-12-20T11:27:15;84.88;;;45.42;;
41077;SDS011;26823;42.662;23.352;2023-12-20T11:29:41;86.30;;;45.40;;
41077;SDS011;26823;42.662;23.352;2023-12-20T11:35:35;87.50;;;45.78;;
41077;SDS011;26823;42.662;23.352;2023-12-20T11:37:44;81.53;;;45.22;;
41077;SDS011;26823;42.662;23.352;2023-12-20T11:40:13;84.90;;;45.47;;
41077;SDS011;26823;42.662;23.352;2023-12-20T11:45:17;89.07;;;45.17;;
41077;SDS011;26823;42.662;23.352;2023-12-20T11:47:48;86.15;;;46.03;;
41077;SDS011;26823;42.662;23.352;2023-12-20T11:50:16;92.35;;;47.53;;
41077;SDS011;26823;42.662;23.352;2023-12-20T11:52:44;95.80;;;48.72;;
41077;SDS011;26823;42.662;23.352;2023-12-20T11:55:10;91.55;;;48.22;;
41077;SDS011;26823;42.662;23.352;2023-12-20T11:57:36;85.97;;;49.58;;
41077;SDS011;26823;42.662;23.352;2023-12-20T12:00:02;90.60;;;48.22;;
41077;SDS011;26823;42.662;23.352;2023-12-20T12:02:29;95.00;;;49.95;;
41077;SDS011;26823;42.662;23.352;2023-12-20T12:04:55;96.30;;;50.10;;
41077;SDS011;26823;42.662;23.352;2023-12-20T12:07:21;95.13;;;50.85;;
41077;SDS011;26823;42.662;23.352;2023-12-20T12:09:47;92.22;;;48.45;;
41077;SDS011;26823;42.662;23.352;2023-12-20T12:12:13;98.60;;;52.83;;
41077;SDS011;26823;42.662;23.352;2023-12-20T12:14:39;92.68;;;51.53;;
41077;SDS011;26823;42.662;23.352;2023-12-20T12:17:14;92.88;;;51.95;;
41077;SDS011;26823;42.662;23.352;2023-12-20T12:19:41;85.95;;;49.35;;
41077;SDS011;26823;42.662;23.352;2023-12-20T12:22:07;83.93;;;46.45;;
41077;SDS011;26823;42.662;23.352;2023-12-20T12:24:37;89.95;;;49.35;;
41077;SDS011;26823;42.662;23.352;2023-12-20T12:27:05;93.00;;;47.85;;
41077;SDS011;26823;42.662;23.352;2023-12-20T12:29:31;87.85;;;48.75;;
41077;SDS011;26823;42.662;23.352;2023-12-20T12:31:57;84.53;;;48.75;;
41077;SDS011;26823;42.662;23.352;2023-12-20T12:34:23;71.10;;;41.70;;
41077;SDS011;26823;42.662;23.352;2023-12-20T12:36:48;75.10;;;42.00;;
41077;SDS011;26823;42.662;23.352;2023-12-20T12:39:14;73.10;;;42.85;;
41077;SDS011;26823;42.662;23.352;2023-12-20T12:41:40;77.35;;;44.22;;
41077;SDS011;26823;42.662;23.352;2023-12-20T12:44:06;71.45;;;44.65;;
41077;SDS011;26823;42.662;23.352;2023-12-20T12:46:31;71.43;;;44.00;;
41077;SDS011;26823;42.662;23.352;2023-12-20T12:48:57;75.95;;;45.00;;
41077;SDS011;26823;42.662;23.352;2023-12-20T12:51:23;80.97;;;46.15;;
41077;SDS011;26823;42.662;23.352;2023-12-20T12:53:48;87.80;;;49.42;;
41077;SDS011;26823;42.662;23.352;2023-12-20T12:56:14;84.75;;;49.83;;
41077;SDS011;26823;42.662;23.352;2023-12-20T12:58:40;86.80;;;48.55;;
41077;SDS011;26823;42.662;23.352;2023-12-20T13:01:06;87.93;;;48.65;;
41077;SDS011;26823;42.662;23.352;2023-12-20T13:03:31;92.63;;;49.95;;
41077;SDS011;26823;42.662;23.352;2023-12-20T13:05:57;93.75;;;49.42;;
41077;SDS011;26823;42.662;23.352;2023-12-20T13:08:22;100.22;;;52.45;;
41077;SDS011;26823;42.662;23.352;2023-12-20T13:10:48;110.80;;;55.45;;
41077;SDS011;26823;42.662;23.352;2023-12-20T13:13:13;101.68;;;55.33;;
41077;SDS011;26823;42.662;23.352;2023-12-20T13:15:38;99.22;;;51.70;;
41077;SDS011;26823;42.662;23.352;2023-12-20T13:18:04;102.65;;;51.17;;
41077;SDS011;26823;42.662;23.352;2023-12-20T13:20:31;103.53;;;51.28;;
41077;SDS011;26823;42.662;23.352;2023-12-20T13:22:56;105.97;;;51.47;;
41077;SDS011;26823;42.662;23.352;2023-12-20T13:25:22;103.35;;;48.35;;
41077;SDS011;26823;42.662;23.352;2023-12-20T13:27:47;97.97;;;49.00;;
41077;SDS011;26823;42.662;23.352;2023-12-20T13:30:13;102.35;;;49.90;;
41077;SDS011;26823;42.662;23.352;2023-12-20T13:32:38;96.75;;;48.60;;
41077;SDS011;26823;42.662;23.352;2023-12-20T13:35:04;90.88;;;46.33;;
41077;SDS011;26823;42.662;23.352;2023-12-20T13:37:30;98.28;;;47.80;;
41077;SDS011;26823;42.662;23.352;2023-12-20T13:39:56;95.50;;;47.58;;
41077;SDS011;26823;42.662;23.352;2023-12-20T13:42:21;93.05;;;45.80;;
41077;SDS011;26823;42.662;23.352;2023-12-20T13:44:47;91.55;;;46.00;;
41077;SDS011;26823;42.662;23.352;2023-12-20T13:47:12;96.50;;;45.95;;
41077;SDS011;26823;42.662;23.352;2023-12-20T13:49:37;98.10;;;46.13;;
41077;SDS011;26823;42.662;23.352;2023-12-20T13:52:03;99.53;;;45.20;;
41077;SDS011;26823;42.662;23.352;2023-12-20T13:54:29;103.75;;;46.65;;
41077;SDS011;26823;42.662;23.352;2023-12-20T13:56:55;104.18;;;45.17;;
41077;SDS011;26823;42.662;23.352;2023-12-20T13:59:22;98.28;;;45.25;;
41077;SDS011;26823;42.662;23.352;2023-12-20T14:01:48;92.05;;;44.65;;
41077;SDS011;26823;42.662;23.352;2023-12-20T14:04:15;101.38;;;46.53;;
41077;SDS011;26823;42.662;23.352;2023-12-20T14:06:40;107.35;;;48.45;;
41077;SDS011;26823;42.662;23.352;2023-12-20T14:09:06;110.05;;;48.50;;
41077;SDS011;26823;42.662;23.352;2023-12-20T14:11:31;93.85;;;44.95;;
41077;SDS011;26823;42.662;23.352;2023-12-20T14:13:57;109.20;;;47.55;;
41077;SDS011;26823;42.662;23.352;2023-12-20T14:16:23;117.25;;;54.42;;